Time;durP1;ratioP1;P1;durP2;ratioP2;P2;SDS_P1;SDS_P2;PMS_P1;PMS_P2;Temp;Humidity;BMP_temperature;BMP_pressure;BME280_temperature;BME280_humidity;BME280_pressure;Samples;Min_cycle;Max_cycle;Signal;HPM_P1;HPM_P2
2021/06/17 00:00:14;;;;;;;7.05;5.25;;;;;;;22.39;61.76;99350.72;4998807;28;20044;-60
2021/06/17 00:02:43;;;;;;;8.30;5.70;;;;;;;22.38;61.44;99341.94;5014856;28;20421;-60
2021/06/17 00:05:15;;;;;;;6.45;5.28;;;;;;;22.37;61.78;99348.13;5015138;28;20038;-60
2021/06/17 00:07:47;;;;;;;11.63;5.50;;;;;;;22.36;61.68;99339.38;5015162;28;20137;-60
2021/06/17 00:10:26;;;;;;;5.05;4.50;;;;;;;22.35;61.71;99339.41;4998845;28;20104;-60
2021/06/17 00:12:53;;;;;;;8.23;5.50;;;;;;;22.34;61.64;99337.72;5015114;28;20444;-59
2021/06/17 00:15:20;;;;;;;9.73;5.63;;;;;;;22.33;61.65;99334.22;4998324;28;20050;-59
2021/06/17 00:17:46;;;;;;;7.80;5.03;;;;;;;22.33;61.53;99343.94;5015054;28;20037;-59
2021/06/17 00:20:12;;;;;;;5.82;4.82;;;;;;;22.32;61.51;99336.94;5016032;28;20030;-59
2021/06/17 00:22:43;;;;;;;6.97;5.53;;;;;;;22.31;61.75;99328.16;5016130;28;20121;-59
2021/06/17 00:25:13;;;;;;;7.07;4.82;;;;;;;22.30;61.70;99333.50;5014580;28;20062;-61
2021/06/17 00:27:41;;;;;;;7.03;4.72;;;;;;;22.29;61.47;99330.00;5014907;28;20038;-61
2021/06/17 00:30:14;;;;;;;8.18;5.13;;;;;;;22.27;61.56;99328.34;4997950;28;20172;-61
2021/06/17 00:32:40;;;;;;;6.40;4.63;;;;;;;22.26;61.45;99327.50;5014779;28;20033;-61
2021/06/17 00:35:10;;;;;;;7.43;4.95;;;;;;;22.26;61.50;99319.59;5014645;28;20520;-60
2021/06/17 00:37:36;;;;;;;6.05;4.40;;;;;;;22.26;61.64;99324.00;4998506;28;20127;-61
2021/06/17 00:40:06;;;;;;;5.50;4.30;;;;;;;22.24;61.32;99320.56;5014752;28;20055;-61
2021/06/17 00:42:33;;;;;;;6.40;4.85;;;;;;;22.25;61.47;99319.66;4998400;28;20038;-61
2021/06/17 00:45:01;;;;;;;5.93;5.32;;;;;;;22.22;61.32;99310.09;5014307;28;20038;-61
2021/06/17 00:47:29;;;;;;;7.22;5.15;;;;;;;22.21;61.62;99317.13;5014394;28;20068;-61
2021/06/17 00:49:57;;;;;;;7.15;5.03;;;;;;;22.20;61.61;99301.38;4998048;28;20037;-61
2021/06/17 00:52:23;;;;;;;7.82;5.10;;;;;;;22.19;61.42;99305.78;5014021;28;20080;-61
2021/06/17 00:54:54;;;;;;;5.65;4.97;;;;;;;22.17;61.47;99310.31;4997850;28;20062;-61
2021/06/17 00:57:21;;;;;;;8.07;4.25;;;;;;;22.16;61.31;99310.34;5014649;28;20052;-61
2021/06/17 00:59:52;;;;;;;5.43;4.38;;;;;;;22.14;61.32;99310.44;4998523;28;20044;-61
2021/06/17 01:02:24;;;;;;;5.78;4.40;;;;;;;22.13;61.39;99310.47;5015441;28;20046;-61
2021/06/17 01:04:52;;;;;;;5.25;4.13;;;;;;;22.13;61.28;99307.84;5015518;28;20485;-61
2021/06/17 01:07:29;;;;;;;5.38;4.80;;;;;;;22.11;61.42;99310.56;5014043;28;20025;-61
2021/06/17 01:10:15;;;;;;;6.88;3.97;;;;;;;22.08;61.33;99318.59;4998140;28;20038;-61
2021/06/17 01:12:49;;;;;;;4.45;3.63;;;;;;;22.09;61.29;99316.84;4996836;28;20041;-61
2021/06/17 01:15:18;;;;;;;5.20;4.38;;;;;;;22.08;61.38;99318.59;5014369;28;20053;-60
2021/06/17 01:17:55;;;;;;;7.30;4.40;;;;;;;22.07;61.34;99321.31;4997343;28;20409;-60
2021/06/17 01:20:28;;;;;;;6.13;4.35;;;;;;;22.07;61.35;99330.06;5014606;28;20085;-60
2021/06/17 01:23:24;;;;;;;5.82;4.72;;;;;;;22.04;61.27;99332.84;5015835;28;20057;-60
2021/06/17 01:26:05;;;;;;;5.60;4.40;;;;;;;22.04;61.21;99324.91;4997416;28;20144;-60
2021/06/17 01:28:33;;;;;;;9.02;4.55;;;;;;;22.03;61.38;99323.25;5013931;28;20536;-60
2021/06/17 01:31:20;;;;;;;5.25;3.92;;;;;;;22.02;61.32;99319.72;4997241;28;20030;-60
2021/06/17 01:33:48;;;;;;;7.82;4.30;;;;;;;22.03;61.22;99320.59;5014039;28;20041;-60
2021/06/17 01:36:35;;;;;;;5.95;4.30;;;;;;;22.03;61.18;99324.06;4997427;28;20116;-60
2021/06/17 01:39:06;;;;;;;5.30;4.30;;;;;;;22.01;61.26;99328.56;4996880;28;20029;-59
2021/06/17 01:41:39;;;;;;;7.03;4.45;;;;;;;22.00;61.19;99332.13;4995850;28;20041;-59
2021/06/17 01:44:11;;;;;;;5.22;4.22;;;;;;;22.00;61.17;99328.63;5013893;28;20026;-60
2021/06/17 01:46:40;;;;;;;6.63;4.47;;;;;;;22.00;61.23;99329.47;4997068;28;20042;-60
2021/06/17 01:49:10;;;;;;;5.97;4.72;;;;;;;21.99;61.08;99326.91;5013399;28;20489;-59
2021/06/17 01:51:37;;;;;;;6.78;4.00;;;;;;;21.99;61.15;99329.56;4996872;28;20088;-59
2021/06/17 01:54:03;;;;;;;7.82;4.72;;;;;;;21.98;61.01;99333.97;5013279;28;20397;-59
2021/06/17 01:56:53;;;;;;;7.13;4.13;;;;;;;21.98;61.18;99325.19;4997493;28;20041;-59
2021/06/17 01:59:22;;;;;;;5.45;4.28;;;;;;;21.97;60.99;99326.97;5013254;28;20049;-60
2021/06/17 02:01:51;;;;;;;6.50;4.15;;;;;;;21.97;61.05;99324.31;5013855;28;20045;-59
2021/06/17 02:04:24;;;;;;;6.20;4.20;;;;;;;21.96;60.90;99313.84;4997184;28;20041;-59
2021/06/17 02:06:50;;;;;;;4.18;3.78;;;;;;;21.95;61.03;99310.38;4996428;28;20042;-62
2021/06/17 02:09:23;;;;;;;5.88;4.40;;;;;;;21.95;60.86;99313.00;5012897;28;20067;-61
2021/06/17 02:11:52;;;;;;;5.93;4.70;;;;;;;21.94;61.02;99311.28;4996583;28;20038;-61
2021/06/17 02:14:25;;;;;;;5.38;4.38;;;;;;;21.93;61.00;99304.31;5014157;28;20092;-61
2021/06/17 02:16:51;;;;;;;5.45;4.53;;;;;;;21.93;60.92;99317.50;5013872;28;20046;-61
2021/06/17 02:19:19;;;;;;;5.72;4.25;;;;;;;21.94;60.90;99311.28;5012768;28;20046;-61
2021/06/17 02:21:50;;;;;;;6.15;4.43;;;;;;;21.94;60.63;99307.78;5012757;28;20037;-61
2021/06/17 02:24:16;;;;;;;5.72;4.22;;;;;;;21.93;60.69;99300.78;5014159;28;20034;-61
2021/06/17 02:26:44;;;;;;;6.82;4.13;;;;;;;21.93;60.90;99299.03;5013087;28;20513;-61
2021/06/17 02:29:13;;;;;;;5.45;3.95;;;;;;;21.93;60.83;99292.88;4996106;28;20048;-61
2021/06/17 02:31:44;;;;;;;7.45;4.18;;;;;;;21.93;60.64;99292.88;4996273;28;20528;-60
2021/06/17 02:34:11;;;;;;;6.95;3.90;;;;;;;21.91;60.68;99282.41;4996708;28;20397;-61
2021/06/17 02:36:42;;;;;;;11.20;4.50;;;;;;;21.92;60.79;99288.53;4996280;28;20030;-61
2021/06/17 02:39:12;;;;;;;5.47;4.38;;;;;;;21.91;60.81;99285.03;5013897;28;20496;-61
2021/06/17 02:41:47;;;;;;;6.40;3.90;;;;;;;21.90;60.77;99281.53;5013727;28;20045;-61
2021/06/17 02:44:16;;;;;;;7.18;4.25;;;;;;;21.89;60.62;99282.44;5012972;28;20040;-61
2021/06/17 02:46:44;;;;;;;6.25;3.97;;;;;;;21.88;60.62;99272.81;5013428;28;20037;-61
2021/06/17 02:49:16;;;;;;;5.05;4.30;;;;;;;21.87;60.66;99267.63;5012356;28;20061;-60
2021/06/17 02:51:45;;;;;;;7.45;4.38;;;;;;;21.86;60.51;99256.25;4996276;28;20030;-60
2021/06/17 02:54:19;;;;;;;4.78;3.83;;;;;;;21.87;60.61;99252.69;5018720;28;20037;-61
2021/06/17 02:57:07;;;;;;;4.25;3.60;;;;;;;21.87;60.61;99251.81;5003017;28;20137;-61
2021/06/17 03:00:00;;;;;;;6.95;4.35;;;;;;;21.84;60.64;99252.81;5002565;28;20542;-61
2021/06/17 03:03:07;;;;;;;6.80;4.60;;;;;;;21.84;60.61;99258.09;5002173;28;20053;-61
2021/06/17 03:05:41;;;;;;;5.97;4.18;;;;;;;21.85;60.46;99264.19;5019031;28;20069;-60
2021/06/17 03:08:18;;;;;;;7.15;4.75;;;;;;;21.83;60.81;99261.63;5018755;28;20540;-60
2021/06/17 03:10:54;;;;;;;6.22;4.40;;;;;;;21.81;60.31;99266.13;5002362;28;20092;-59
2021/06/17 03:13:28;;;;;;;4.95;4.15;;;;;;;21.82;60.22;99275.75;5003095;28;20096;-61
2021/06/17 03:15:56;;;;;;;;;;;;;;;21.77;60.49;99267.16;5019442;28;20037;-61
2021/06/17 03:18:36;;;;;;;5.88;4.38;;;;;;;21.77;60.37;99269.81;5019128;28;19913;-61
2021/06/17 03:21:03;;;;;;;4.57;3.95;;;;;;;21.78;60.18;99279.44;5018861;28;20137;-61
2021/06/17 03:23:37;;;;;;;6.13;4.03;;;;;;;21.78;60.10;99282.06;5018688;28;20038;-61
2021/06/17 03:26:11;;;;;;;7.90;4.00;;;;;;;21.77;60.15;99282.97;5019050;28;20073;-60
2021/06/17 03:28:39;;;;;;;6.53;4.70;;;;;;;21.77;60.17;99288.25;5018923;28;20083;-61
2021/06/17 03:31:14;;;;;;;4.80;3.72;;;;;;;21.77;60.26;99282.97;5018804;28;20041;-61
2021/06/17 03:33:43;;;;;;;4.85;3.78;;;;;;;21.77;60.12;99293.53;5018772;28;20060;-59
2021/06/17 03:36:19;;;;;;;6.75;4.30;;;;;;;21.78;60.11;99283.84;5001902;28;20129;-60
2021/06/17 03:38:51;;;;;;;5.72;3.75;;;;;;;21.77;60.25;99279.50;5018451;28;20489;-60
2021/06/17 03:41:27;;;;;;;6.75;3.50;;;;;;;21.78;60.04;99275.94;5019994;28;20489;-60
2021/06/17 03:44:00;;;;;;;7.28;4.47;;;;;;;21.78;60.01;99276.78;5019941;28;20034;-61
2021/06/17 03:46:35;;;;;;;4.85;3.75;;;;;;;21.78;60.04;99273.31;5018520;28;20056;-61
2021/06/17 03:49:06;;;;;;;7.40;4.15;;;;;;;21.80;59.93;99276.75;5018719;28;20025;-61
2021/06/17 03:51:38;;;;;;;5.82;3.92;;;;;;;21.81;60.02;99278.44;5019238;28;20419;-61
2021/06/17 03:54:05;;;;;;;6.60;4.05;;;;;;;21.81;59.93;99279.31;5018610;28;20045;-61
2021/06/17 03:56:32;;;;;;;5.97;3.65;;;;;;;21.85;59.82;99282.66;5019477;28;20042;-61
2021/06/17 03:58:57;;;;;;;4.47;3.97;;;;;;;21.85;59.84;99287.94;5001704;28;20034;-61
2021/06/17 04:01:28;;;;;;;4.60;3.63;;;;;;;21.85;59.66;99291.44;5018925;28;20041;-61
2021/06/17 04:03:53;;;;;;;4.22;3.83;;;;;;;21.85;59.67;99283.53;5017600;28;20398;-61
2021/06/17 04:06:25;;;;;;;6.80;3.95;;;;;;;21.84;59.83;99284.44;5014882;28;20026;-61
2021/06/17 04:08:56;;;;;;;5.50;3.70;;;;;;;21.84;59.59;99281.81;5015328;28;20041;-61
2021/06/17 04:11:25;;;;;;;5.97;3.63;;;;;;;21.85;59.57;99275.63;5016019;28;20059;-61
2021/06/17 04:13:53;;;;;;;6.28;3.78;;;;;;;21.85;59.45;99272.09;4999008;28;20041;-61
2021/06/17 04:16:22;;;;;;;4.50;3.17;;;;;;;21.86;59.50;99271.19;5016260;28;20030;-61
2021/06/17 04:18:54;;;;;;;5.28;3.80;;;;;;;21.85;59.38;99277.38;5016150;28;20049;-61
2021/06/17 04:21:21;;;;;;;5.18;3.45;;;;;;;21.86;59.45;99277.34;5014587;28;20037;-61
2021/06/17 04:23:56;;;;;;;4.80;3.50;;;;;;;21.86;59.42;99268.56;5015977;28;20519;-61
2021/06/17 04:26:27;;;;;;;12.18;4.22;;;;;;;21.85;59.49;99275.63;4998516;28;20038;-61
2021/06/17 04:28:56;;;;;;;4.03;3.45;;;;;;;21.85;59.17;99280.91;5016146;28;20065;-61
2021/06/17 04:31:25;;;;;;;4.55;3.17;;;;;;;21.87;59.19;99283.44;5015698;28;20037;-61
2021/06/17 04:33:51;;;;;;;7.03;3.40;;;;;;;21.86;59.29;99279.97;5015138;28;20038;-61
2021/06/17 04:36:20;;;;;;;3.97;2.80;;;;;;;21.87;59.13;99283.44;5014910;28;20079;-61
2021/06/17 04:38:51;;;;;;;4.70;3.38;;;;;;;21.87;59.26;99289.59;5014729;28;20049;-61
2021/06/17 04:41:20;;;;;;;5.18;3.10;;;;;;;21.88;59.17;99286.00;5015861;28;20554;-61
2021/06/17 04:43:48;;;;;;;6.05;3.22;;;;;;;21.89;59.21;99289.53;5015836;28;20117;-61
2021/06/17 04:46:14;;;;;;;4.30;3.13;;;;;;;21.89;59.30;99279.81;5015524;28;20030;-61
2021/06/17 04:48:45;;;;;;;4.07;3.40;;;;;;;21.90;59.10;99289.44;5014193;28;20128;-61
2021/06/17 04:51:16;;;;;;;4.63;3.08;;;;;;;21.89;59.30;99286.88;5015680;28;20034;-61
2021/06/17 04:53:50;;;;;;;4.97;3.67;;;;;;;21.87;58.96;99294.88;5015640;28;20038;-61
2021/06/17 04:56:18;;;;;;;4.30;3.58;;;;;;;21.89;58.99;99298.28;4998043;28;20501;-61
2021/06/17 04:58:47;;;;;;;6.35;3.22;;;;;;;21.89;59.13;99311.47;5014048;28;20461;-61
2021/06/17 05:01:19;;;;;;;3.42;3.05;;;;;;;21.90;59.06;99304.44;5014312;28;20066;-61
2021/06/17 05:03:49;;;;;;;4.65;3.38;;;;;;;21.92;59.15;99301.72;5013961;28;20054;-61
2021/06/17 05:06:20;;;;;;;4.63;3.35;;;;;;;21.93;59.09;99303.44;5014281;28;20037;-61
2021/06/17 05:11:57;;;;;;;4.38;2.88;;;;;;;21.94;59.01;99311.28;4955173;29;20050;-61
2021/06/17 05:14:23;;;;;;;4.57;3.38;;;;;;;21.95;58.91;99320.06;4954598;29;20046;-61
2021/06/17 05:16:48;;;;;;;4.85;3.40;;;;;;;21.96;58.98;99321.78;4984287;28;20053;-61
2021/06/17 05:19:16;;;;;;;4.72;3.55;;;;;;;21.95;58.97;99323.56;5014019;28;20492;-61
2021/06/17 05:21:47;;;;;;;6.10;3.63;;;;;;;21.94;58.98;99308.66;5013825;28;20486;-61
2021/06/17 05:24:19;;;;;;;4.45;3.30;;;;;;;21.96;58.98;99309.41;5013555;28;20041;-61
2021/06/17 05:26:53;;;;;;;6.47;3.60;;;;;;;21.96;58.75;99314.69;5013888;28;20112;-62
2021/06/17 05:29:21;;;;;;;6.88;3.75;;;;;;;21.97;58.65;99315.56;5014965;28;20041;-61
2021/06/17 05:31:53;;;;;;;7.95;3.65;;;;;;;21.96;58.65;99314.69;5013514;28;20069;-61
2021/06/17 05:34:21;;;;;;;8.07;3.25;;;;;;;21.98;58.39;99325.19;5014903;28;20466;-61
2021/06/17 05:36:53;;;;;;;8.27;3.58;;;;;;;21.97;58.68;99313.78;4997098;28;20477;-61
2021/06/17 05:39:25;;;;;;;6.00;3.28;;;;;;;21.96;58.50;99314.69;5013014;28;20490;-61
2021/06/17 05:41:53;;;;;;;4.28;3.35;;;;;;;21.97;58.46;99315.56;4997115;28;20037;-61
2021/06/17 05:44:24;;;;;;;5.03;3.08;;;;;;;21.97;58.43;99326.13;4997011;28;20490;-61
2021/06/17 05:46:55;;;;;;;5.05;3.53;;;;;;;21.98;58.62;99333.13;4996834;28;20141;-61
2021/06/17 05:49:24;;;;;;;5.88;3.58;;;;;;;21.98;58.16;99330.47;5014518;28;20037;-61
2021/06/17 05:51:55;;;;;;;7.53;3.40;;;;;;;21.98;58.46;99333.97;5013000;28;20057;-61
2021/06/17 05:54:26;;;;;;;8.10;3.97;;;;;;;21.99;58.21;99334.84;4997381;28;20030;-61
2021/06/17 05:56:59;;;;;;;8.23;3.78;;;;;;;21.99;58.19;99334.84;5013734;28;20511;-61
2021/06/17 05:59:30;;;;;;;7.30;3.78;;;;;;;21.99;58.15;99353.31;5014296;28;20034;-61
2021/06/17 06:01:58;;;;;;;4.97;3.85;;;;;;;22.01;58.16;99365.50;4996573;28;20037;-62
2021/06/17 06:04:24;;;;;;;7.55;3.60;;;;;;;22.02;57.87;99371.66;5013144;28;20030;-61
2021/06/17 06:06:52;;;;;;;5.25;4.00;;;;;;;22.01;58.20;99354.94;5013037;28;20041;-61
2021/06/17 06:09:20;;;;;;;6.50;4.47;;;;;;;22.03;58.08;99352.25;5014126;28;20040;-61
2021/06/17 06:11:50;;;;;;;7.20;4.70;;;;;;;22.04;58.29;99359.22;5014222;28;20045;-61
2021/06/17 06:14:18;;;;;;;10.80;4.30;;;;;;;22.07;58.27;99360.88;4996450;28;20465;-61
2021/06/17 06:16:50;;;;;;;5.28;3.92;;;;;;;22.07;58.28;99364.38;5014211;28;20084;-61
2021/06/17 06:19:19;;;;;;;5.22;3.67;;;;;;;22.07;58.11;99369.66;4996259;28;20425;-61
2021/06/17 06:21:50;;;;;;;8.85;3.97;;;;;;;22.07;57.99;99372.28;5013117;28;20034;-61
2021/06/17 06:24:15;;;;;;;8.68;3.95;;;;;;;22.09;58.21;99385.44;5012692;28;20048;-61
2021/06/17 06:26:41;;;;;;;7.55;3.92;;;;;;;22.09;57.89;99390.72;5012284;28;20037;-61
2021/06/17 06:29:15;;;;;;;6.40;3.45;;;;;;;22.10;57.85;99408.25;5011929;28;20040;-61
2021/06/17 06:31:48;;;;;;;7.13;3.70;;;;;;;22.09;58.01;99410.03;4996307;28;20046;-61
2021/06/17 06:34:17;;;;;;;4.13;3.42;;;;;;;22.10;58.13;99417.00;4996488;28;20548;-61
2021/06/17 06:36:48;;;;;;;6.82;3.70;;;;;;;22.10;58.00;99413.53;5013995;28;20056;-61
2021/06/17 06:39:17;;;;;;;7.95;4.40;;;;;;;22.10;58.05;99416.16;5013760;28;20040;-61
2021/06/17 06:41:43;;;;;;;5.53;4.07;;;;;;;22.13;58.01;99410.75;5013609;28;20062;-61
2021/06/17 06:44:14;;;;;;;5.88;3.83;;;;;;;22.13;57.94;99426.56;5013520;28;20113;-61
2021/06/17 06:46:44;;;;;;;5.38;3.72;;;;;;;22.13;58.17;99410.75;5012849;28;20034;-61
2021/06/17 06:49:13;;;;;;;8.25;4.10;;;;;;;22.15;58.29;99414.19;5012522;28;20141;-61
2021/06/17 06:51:40;;;;;;;5.22;3.75;;;;;;;22.16;58.08;99411.50;4996057;28;20152;-61
2021/06/17 06:54:10;;;;;;;6.05;3.53;;;;;;;22.18;58.33;99409.66;5012422;28;20076;-61
2021/06/17 06:56:37;;;;;;;4.90;3.33;;;;;;;22.19;58.04;99408.69;5012341;28;20037;-61
2021/06/17 06:59:08;;;;;;;7.38;3.80;;;;;;;22.19;58.07;99406.06;5013911;28;20063;-61
2021/06/17 07:01:36;;;;;;;6.85;3.60;;;;;;;22.21;58.32;99398.09;5013718;28;20474;-61
2021/06/17 07:04:04;;;;;;;5.70;3.38;;;;;;;22.23;58.19;99400.66;5012153;28;20053;-61
2021/06/17 07:06:33;;;;;;;4.22;3.45;;;;;;;22.23;58.20;99400.66;5013609;28;20061;-60
2021/06/17 07:09:01;;;;;;;6.63;3.75;;;;;;;22.25;58.29;99410.25;5013325;28;20084;-60
2021/06/17 07:11:31;;;;;;;5.30;3.72;;;;;;;22.26;58.24;99414.59;5013481;28;20091;-60
2021/06/17 07:14:04;;;;;;;5.38;3.47;;;;;;;22.27;58.25;99407.53;4996360;28;20120;-60
2021/06/17 07:16:33;;;;;;;6.45;3.88;;;;;;;22.28;58.28;99403.97;5012321;28;20042;-62
2021/06/17 07:19:05;;;;;;;8.00;4.00;;;;;;;22.28;58.30;99402.19;4995870;28;20037;-60
2021/06/17 07:21:34;;;;;;;4.75;3.33;;;;;;;22.29;58.21;99395.97;5012352;28;20042;-60
2021/06/17 07:24:05;;;;;;;6.10;3.70;;;;;;;22.30;58.33;99388.94;5012076;28;20084;-61
2021/06/17 07:26:31;;;;;;;9.82;3.78;;;;;;;22.31;58.40;99393.28;5012241;28;20473;-61
2021/06/17 07:28:57;;;;;;;8.07;3.92;;;;;;;22.33;58.46;99383.53;5011957;28;20038;-61
2021/06/17 07:31:26;;;;;;;4.53;3.45;;;;;;;22.33;58.27;99386.16;5012198;28;20092;-61
2021/06/17 07:33:57;;;;;;;4.68;3.17;;;;;;;22.35;58.47;99384.28;5011709;28;20116;-62
2021/06/17 07:36:23;;;;;;;5.40;3.63;;;;;;;22.34;58.26;99372.03;5013105;28;20049;-61
2021/06/17 07:38:51;;;;;;;9.70;3.35;;;;;;;22.34;58.27;99372.03;5013554;28;20042;-60
2021/06/17 07:41:19;;;;;;;4.85;3.60;;;;;;;22.34;58.27;99356.22;5016310;28;20042;-62
2021/06/17 07:43:50;;;;;;;6.25;3.60;;;;;;;22.35;58.41;99361.41;5016770;28;20104;-62
2021/06/17 07:46:18;;;;;;;6.70;3.42;;;;;;;22.35;58.34;99355.25;5017013;28;20045;-62
2021/06/17 07:48:49;;;;;;;9.68;4.05;;;;;;;22.35;58.23;99352.63;5016304;28;20401;-62
2021/06/17 07:51:20;;;;;;;7.15;3.58;;;;;;;22.34;58.15;99346.50;5015781;28;20409;-61
2021/06/17 07:53:49;;;;;;;4.22;3.42;;;;;;;22.36;58.10;99356.97;5017138;28;20074;-61
2021/06/17 07:56:14;;;;;;;7.13;3.40;;;;;;;22.36;58.27;99360.50;5016624;28;20044;-61
2021/06/17 07:58:43;;;;;;;7.57;3.47;;;;;;;22.36;58.28;99363.13;5016556;28;20033;-62
2021/06/17 08:01:11;;;;;;;6.70;3.47;;;;;;;22.38;58.35;99367.47;5015352;28;20034;-61
2021/06/17 08:03:40;;;;;;;8.23;3.67;;;;;;;22.37;58.42;99374.53;5015147;28;20042;-61
2021/06/17 08:06:11;;;;;;;4.95;3.03;;;;;;;22.37;58.26;99366.59;4999208;28;20479;-62
2021/06/17 08:08:40;;;;;;;4.13;3.03;;;;;;;22.39;58.28;99358.63;5015026;28;20056;-62
2021/06/17 08:11:09;;;;;;;8.00;3.60;;;;;;;22.40;58.28;99358.56;5014855;28;20049;-62
2021/06/17 08:13:40;;;;;;;5.80;3.92;;;;;;;22.41;58.19;99354.16;5015939;28;20417;-62
2021/06/17 08:16:05;;;;;;;5.80;3.40;;;;;;;22.42;58.36;99354.09;4998569;28;20255;-62
2021/06/17 08:18:36;;;;;;;6.35;3.00;;;;;;;22.44;58.28;99351.38;5016137;28;20037;-62
2021/06/17 08:21:07;;;;;;;6.45;3.67;;;;;;;22.46;58.47;99360.97;5016224;28;20033;-62
2021/06/17 08:23:33;;;;;;;5.57;4.15;;;;;;;22.47;58.51;99349.50;5016291;28;20030;-62
2021/06/17 08:25:59;;;;;;;7.43;3.63;;;;;;;22.48;58.34;99348.56;5016237;28;20038;-62
2021/06/17 08:28:30;;;;;;;7.10;3.30;;;;;;;22.51;58.25;99358.97;5014821;28;20053;-62
2021/06/17 08:31:01;;;;;;;9.10;4.28;;;;;;;22.54;58.61;99354.47;5014626;28;20034;-61
2021/06/17 08:33:27;;;;;;;8.82;4.63;;;;;;;22.56;58.80;99352.63;5014691;28;20048;-61
2021/06/17 08:35:56;;;;;;;5.57;3.70;;;;;;;22.57;58.39;99344.66;5015220;28;20034;-61
2021/06/17 08:38:22;;;;;;;10.57;3.90;;;;;;;22.58;58.38;99346.34;5015559;28;20038;-61
2021/06/17 08:40:48;;;;;;;13.75;4.13;;;;;;;22.60;58.51;99343.66;5015993;28;20069;-61
2021/06/17 08:43:13;;;;;;;8.65;3.70;;;;;;;22.60;58.34;99335.75;5014674;28;20038;-61
2021/06/17 08:45:39;;;;;;;8.02;3.70;;;;;;;22.61;58.43;99340.09;5015786;28;20034;-61
2021/06/17 08:48:05;;;;;;;4.60;3.50;;;;;;;22.63;58.59;99347.00;5016439;28;20034;-61
2021/06/17 08:50:31;;;;;;;5.43;3.50;;;;;;;22.64;58.42;99345.25;5013593;28;20034;-61
2021/06/17 08:52:56;;;;;;;10.93;4.40;;;;;;;22.66;58.59;99346.88;5015537;28;20045;-61
2021/06/17 08:55:30;;;;;;;6.32;4.25;;;;;;;22.69;58.66;99345.88;5015452;28;20087;-61
2021/06/17 08:57:57;;;;;;;;;;;;;;;22.71;58.58;99346.66;5014722;28;20042;-61
2021/06/17 09:00:23;;;;;;;4.97;3.70;;;;;;;22.73;58.96;99352.72;5015205;28;20419;-60
2021/06/17 09:03:15;;;;;;;7.88;3.78;;;;;;;22.76;58.80;99351.72;5014141;28;20513;-60
2021/06/17 09:05:52;;;;;;;9.90;3.88;;;;;;;22.77;59.05;99343.75;5010681;28;20050;-61
2021/06/17 09:08:30;;;;;;;7.18;4.28;;;;;;;22.78;58.98;99350.75;5015264;28;20030;-60
2021/06/17 09:10:55;;;;;;;8.52;5.70;;;;;;;22.79;58.92;99357.75;5015814;28;20244;-60
2021/06/17 09:13:26;;;;;;;8.70;4.72;;;;;;;22.80;58.75;99350.66;5015237;28;20440;-61
2021/06/17 09:15:55;;;;;;;7.95;4.82;;;;;;;22.79;58.96;99357.75;5015023;28;20045;-61
2021/06/17 09:18:24;;;;;;;8.77;4.75;;;;;;;22.83;58.76;99365.50;5014718;28;20029;-61
2021/06/17 09:20:56;;;;;;;7.85;4.47;;;;;;;22.84;58.87;99367.22;5014035;28;20041;-61
2021/06/17 09:23:26;;;;;;;8.10;4.70;;;;;;;22.84;58.81;99372.50;5015135;28;20041;-62
2021/06/17 09:25:54;;;;;;;8.07;4.32;;;;;;;22.85;58.90;99372.47;5015240;28;20038;-61
2021/06/17 09:28:20;;;;;;;9.95;4.47;;;;;;;22.88;58.97;99374.09;5014535;28;20034;-61
2021/06/17 09:30:46;;;;;;;11.20;4.35;;;;;;;22.89;59.13;99375.81;5013652;28;20092;-62
2021/06/17 09:33:14;;;;;;;9.23;5.10;;;;;;;22.91;59.31;99381.88;5013569;28;20502;-61
2021/06/17 09:35:58;;;;;;;5.30;4.30;;;;;;;22.92;59.29;99387.09;4996989;28;20138;-61
2021/06/17 09:38:25;;;;;;;7.57;4.35;;;;;;;22.94;59.13;99384.38;5013577;28;20560;-60
2021/06/17 09:40:52;;;;;;;9.13;4.22;;;;;;;22.96;59.18;99391.31;5013662;28;20030;-60
2021/06/17 09:43:24;;;;;;;12.93;4.50;;;;;;;22.98;59.29;99393.88;5014590;28;20493;-60
2021/06/17 09:45:54;;;;;;;8.55;4.25;;;;;;;23.00;59.25;99397.31;5014528;28;20073;-61
2021/06/17 09:48:35;;;;;;;6.30;3.83;;;;;;;23.01;59.14;99401.66;5013055;28;20033;-60
2021/06/17 09:51:40;;;;;;;8.23;4.25;;;;;;;23.03;59.12;99405.09;5013372;28;20036;-60
2021/06/17 09:54:10;;;;;;;6.32;3.80;;;;;;;23.05;59.28;99403.25;5014524;28;20489;-60
2021/06/17 09:56:37;;;;;;;6.85;4.15;;;;;;;23.08;59.32;99394.31;5014221;28;20030;-61
2021/06/17 09:59:07;;;;;;;5.95;4.20;;;;;;;23.10;59.66;99398.63;5013650;28;20034;-61
2021/06/17 10:01:37;;;;;;;6.90;4.28;;;;;;;23.12;59.67;99399.38;5014473;28;20049;-61
2021/06/17 10:04:07;;;;;;;5.15;4.07;;;;;;;23.16;59.58;99399.22;5013946;28;20045;-61
2021/06/17 10:06:40;;;;;;;7.05;4.72;;;;;;;23.17;59.38;99406.25;5012932;28;20413;-61
2021/06/17 10:09:17;;;;;;;8.90;4.32;;;;;;;23.18;59.66;99406.19;5013663;28;20501;-61
2021/06/17 10:11:43;;;;;;;11.85;3.83;;;;;;;23.20;59.19;99408.75;5014463;28;20044;-62
2021/06/17 10:14:11;;;;;;;5.63;3.97;;;;;;;23.18;59.21;99406.19;5014264;28;20029;-61
2021/06/17 10:16:43;;;;;;;6.07;3.65;;;;;;;23.20;59.14;99424.59;5014081;28;20544;-61
2021/06/17 10:19:10;;;;;;;8.20;3.35;;;;;;;23.20;59.01;99416.69;5013783;28;20060;-61
2021/06/17 10:21:36;;;;;;;6.22;3.00;;;;;;;23.20;58.88;99400.81;5014016;28;20129;-61
2021/06/17 10:24:04;;;;;;;8.45;3.55;;;;;;;23.21;59.05;99407.84;5013287;28;20132;-61
2021/06/17 10:26:45;;;;;;;8.93;3.40;;;;;;;23.23;58.95;99408.63;5013895;28;20110;-62
2021/06/17 10:29:44;;;;;;;5.15;3.55;;;;;;;23.26;58.87;99411.16;5012824;28;20033;-61
2021/06/17 10:32:17;;;;;;;4.63;3.40;;;;;;;23.27;59.26;99412.88;5013506;28;20030;-60
2021/06/17 10:34:57;;;;;;;7.95;3.22;;;;;;;23.28;59.13;99411.91;5013125;28;20041;-60
2021/06/17 10:37:30;;;;;;;10.27;3.65;;;;;;;23.30;59.33;99422.44;5012608;28;20038;-60
2021/06/17 10:40:08;;;;;;;;;;;;;;;23.29;59.32;99421.56;5012944;28;20041;-60
2021/06/17 10:42:44;;;;;;;8.05;3.38;;;;;;;23.29;59.17;99418.06;5013806;28;19913;-60
2021/06/17 10:45:32;;;;;;;4.45;3.05;;;;;;;23.29;59.26;99426.84;5012315;28;20471;-60
2021/06/17 10:48:06;;;;;;;9.00;3.72;;;;;;;23.30;59.13;99417.13;5013965;28;20046;-61
2021/06/17 10:50:46;;;;;;;6.40;3.45;;;;;;;23.30;58.99;99419.78;5012142;28;20468;-61
2021/06/17 10:53:32;;;;;;;6.43;4.00;;;;;;;23.32;59.01;99423.22;5013516;28;20066;-61
2021/06/17 10:56:07;;;;;;;4.40;3.20;;;;;;;23.36;59.46;99428.28;5012955;28;20092;-61
2021/06/17 10:58:45;;;;;;;7.78;3.67;;;;;;;23.38;59.32;99428.19;5012606;28;20037;-61
2021/06/17 11:01:28;;;;;;;9.65;3.95;;;;;;;23.38;59.32;99414.97;5013518;28;20092;-60
2021/06/17 11:04:17;;;;;;;8.20;2.90;;;;;;;23.38;59.26;99417.63;5013031;28;20096;-60
2021/06/17 11:07:02;;;;;;;8.13;3.22;;;;;;;23.36;59.18;99420.34;5013911;28;20030;-61
2021/06/17 11:09:34;;;;;;;8.25;3.13;;;;;;;23.35;59.26;99417.78;5005738;28;20104;-61
2021/06/17 11:12:27;;;;;;;6.38;3.22;;;;;;;23.37;59.08;99415.91;5013573;28;20037;-61
2021/06/17 11:14:57;;;;;;;5.35;2.90;;;;;;;23.39;59.05;99420.22;5015795;28;20474;-61
2021/06/17 11:17:35;;;;;;;7.88;3.05;;;;;;;23.41;59.26;99413.06;5017460;28;20034;-61
2021/06/17 11:20:23;;;;;;;5.13;2.92;;;;;;;23.44;59.22;99424.41;5017484;28;20049;-62
2021/06/17 11:22:50;;;;;;;8.77;3.58;;;;;;;23.47;59.20;99425.13;5016721;28;20041;-61
2021/06/17 11:25:15;;;;;;;5.07;3.08;;;;;;;23.51;58.90;99425.84;5017509;28;20042;-60
2021/06/17 11:28:11;;;;;;;7.45;2.65;;;;;;;23.52;59.09;99420.47;5016296;28;20091;-61
2021/06/17 11:30:43;;;;;;;7.88;3.25;;;;;;;23.55;59.11;99430.91;5016630;28;20034;-60
2021/06/17 11:33:17;;;;;;;6.95;3.58;;;;;;;23.58;59.33;99437.84;5017165;28;20037;-60
2021/06/17 11:35:49;;;;;;;7.75;3.05;;;;;;;23.60;58.91;99438.63;5016060;28;20038;-60
2021/06/17 11:38:30;;;;;;;8.85;3.42;;;;;;;23.62;58.74;99439.41;5015858;28;20041;-59
2021/06/17 11:40:58;;;;;;;9.18;2.88;;;;;;;23.62;58.92;99436.75;4999287;28;20037;-60
2021/06/17 11:43:29;;;;;;;6.80;3.35;;;;;;;23.63;58.84;99442.91;5017441;28;20060;-60
2021/06/17 11:45:55;;;;;;;9.43;2.67;;;;;;;23.63;58.85;99446.41;5016982;28;20042;-60
2021/06/17 11:48:22;;;;;;;5.70;2.92;;;;;;;23.64;58.98;99445.47;5017112;28;20030;-60
2021/06/17 11:50:53;;;;;;;7.25;3.28;;;;;;;23.66;58.92;99445.41;5016936;28;20045;-60
2021/06/17 11:53:23;;;;;;;9.35;2.85;;;;;;;23.70;58.43;99449.59;5015802;28;20111;-60
2021/06/17 11:55:55;;;;;;;7.72;3.40;;;;;;;23.72;58.82;99456.56;5016590;28;20048;-60